SBPL/PNZ METAR and TAF weather

Enter ICAO airport designator
Station Type Date Time Source
SBPL METAR 2021/09/16 22:00 UTC NOAA

SBPL 162200Z 18007KT CAVOK 31/13 Q1016


Station Type Date Time Source
SBPL Decoded METAR 2021/09/16 22:00 UTC NOAA

Petrolina , Brazil (SBPL) 09-21S 040-33W
Sep 16, 2021 - 06:00 PM EDT / 2021.09.16 2200 UTC
Wind: from the S (180 degrees) at 8 MPH (7 KT):0
Visibility: greater than 7 mile(s):0
Temperature: 87 F (31 C)
Dew Point: 55 F (13 C)
Relative Humidity: 33%
Pressure (altimeter): 30.00 in. Hg (1016 hPa)
ob: SBPL 162200Z 18007KT CAVOK 31/13 Q1016
cycle: 22

Station Type Date Time Source
SBPL TAF 2021/09/16 18:39 UTC NOAA

TAF SBPL 161535Z 1618/1718 15012KT 9999 SCT030 TX35/1619Z TN23/1709Z
BECMG 1622/1624 17008KT CAVOK
BECMG 1707/1710 BKN025
BECMG 1710/1712 15012KT
BECMG 1715/1717 17010KT FEW025
RMK PFV

Example: see airport list